createdAt,value
2023-04-06T00:00:08.925Z,6.60
2023-04-06T00:05:08.949Z,9.60
2023-04-06T00:10:08.025Z,7.35
2023-04-06T00:15:08.082Z,8.00
2023-04-06T00:20:08.133Z,7.38
2023-04-06T00:25:08.163Z,6.57
2023-04-06T00:30:08.203Z,7.57
2023-04-06T00:35:08.267Z,8.30
2023-04-06T00:40:08.318Z,6.85
2023-04-06T00:45:08.351Z,9.05
2023-04-06T00:50:08.370Z,6.70
2023-04-06T00:55:08.463Z,7.13
2023-04-06T01:00:08.517Z,7.63
2023-04-06T01:05:08.652Z,7.13
2023-04-06T01:10:08.806Z,8.13
2023-04-06T01:15:08.825Z,9.75
2023-04-06T01:20:08.900Z,7.68
2023-04-06T01:25:09.015Z,7.72
2023-04-06T01:30:08.088Z,7.15
2023-04-06T01:35:08.169Z,6.38
2023-04-06T01:40:08.222Z,8.63
2023-04-06T01:45:08.483Z,8.90
2023-04-06T01:50:08.613Z,7.57
2023-04-06T01:55:08.742Z,9.75
2023-04-06T02:00:08.764Z,11.85
2023-04-06T02:05:08.790Z,8.63
2023-04-06T02:10:08.830Z,8.38
2023-04-06T02:15:08.895Z,11.55
2023-04-06T02:20:08.946Z,7.45
2023-04-06T02:25:08.010Z,7.60
2023-04-06T02:30:08.067Z,9.68
2023-04-06T02:35:08.085Z,9.77
2023-04-06T02:40:08.155Z,9.90
2023-04-06T02:45:08.230Z,9.38
2023-04-06T02:50:08.292Z,8.20
2023-04-06T02:55:08.355Z,11.05
2023-04-06T03:00:08.359Z,9.27
2023-04-06T03:05:08.424Z,8.10
2023-04-06T03:10:08.502Z,9.27
2023-04-06T03:15:08.595Z,9.82
2023-04-06T03:20:08.659Z,9.50
2023-04-06T03:25:08.688Z,9.52
2023-04-06T03:30:08.837Z,9.30
2023-04-06T03:35:08.867Z,10.40
2023-04-06T03:40:08.921Z,11.82
2023-04-06T03:45:08.014Z,12.13
2023-04-06T03:50:08.045Z,14.05
2023-04-06T03:55:08.134Z,8.57
2023-04-06T04:00:08.163Z,9.38
2023-04-06T04:05:13.338Z,12.20
2023-04-06T04:10:04.753Z,10.40
2023-04-06T04:15:03.109Z,10.85
2023-04-06T04:20:03.490Z,12.57
2023-04-06T04:25:04.511Z,12.48
2023-04-06T04:30:03.782Z,10.30
2023-04-06T04:35:03.901Z,9.63
2023-04-06T04:40:04.198Z,11.50
2023-04-06T04:45:05.910Z,9.43
2023-04-06T04:50:15.348Z,0
2023-04-06T04:55:11.290Z,0
2023-04-06T05:00:07.330Z,0
2023-04-06T05:05:06.370Z,0
2023-04-06T05:10:06.371Z,0
2023-04-06T05:15:13.651Z,0
2023-04-06T05:20:06.283Z,0
2023-04-06T05:25:07.294Z,0
2023-04-06T05:30:06.915Z,0
2023-04-06T05:35:06.245Z,0
2023-04-06T05:40:10.409Z,0
2023-04-06T05:45:06.539Z,0
2023-04-06T05:50:07.039Z,0
2023-04-06T05:55:08.450Z,0
2023-04-06T06:00:07.098Z,0
2023-04-06T06:05:13.170Z,0
2023-04-06T06:10:14.613Z,0
2023-04-06T06:15:15.739Z,0
2023-04-06T06:20:13.320Z,0
2023-04-06T06:25:15.273Z,0
2023-04-06T06:30:13.638Z,0
2023-04-06T06:35:14.047Z,0
2023-04-06T06:40:16.126Z,0
2023-04-06T06:45:13.115Z,0
2023-04-06T06:50:13.897Z,0
2023-04-06T06:55:09.370Z,0
2023-04-06T07:00:13.808Z,0
2023-04-06T07:05:27.022Z,0
2023-04-06T07:10:03.082Z,14.15
2023-04-06T07:15:03.491Z,14.90
2023-04-06T07:20:03.295Z,17.00
2023-04-06T07:25:05.020Z,15.07
2023-04-06T07:30:05.095Z,15.80
2023-04-06T07:35:04.424Z,13.88
2023-04-06T07:40:03.086Z,14.73
2023-04-06T07:45:14.566Z,0
2023-04-06T07:50:05.132Z,14.52
2023-04-06T07:55:03.568Z,19.48
2023-04-06T08:00:06.301Z,20.17
2023-04-06T08:05:04.754Z,18.92
2023-04-06T08:10:03.815Z,18.88
2023-04-06T08:15:05.685Z,13.38
2023-04-06T08:20:06.412Z,17.02
2023-04-06T08:25:05.501Z,16.70
2023-04-06T08:30:03.594Z,18.00
2023-04-06T08:35:04.108Z,18.25
2023-04-06T08:40:02.305Z,19.50
2023-04-06T08:45:05.824Z,18.52
2023-04-06T08:50:04.228Z,16.30
2023-04-06T08:55:08.316Z,16.83
2023-04-06T09:00:03.558Z,15.50
2023-04-06T09:05:05.654Z,16.75
2023-04-06T09:10:04.225Z,15.40
2023-04-06T09:15:03.127Z,16.70
2023-04-06T09:20:06.240Z,18.65
2023-04-06T09:25:02.766Z,18.20
2023-04-06T09:30:04.906Z,19.73
2023-04-06T09:35:05.247Z,20.95
2023-04-06T09:40:06.933Z,22.50
2023-04-06T09:45:03.851Z,17.40
2023-04-06T09:50:05.091Z,16.60
2023-04-06T09:55:07.716Z,17.75
2023-04-06T10:00:05.493Z,15.68
2023-04-06T10:05:03.714Z,14.23
2023-04-06T10:10:03.767Z,16.67
2023-04-06T10:15:03.408Z,20.40
2023-04-06T10:20:03.418Z,16.60
2023-04-06T10:25:04.210Z,17.60
2023-04-06T10:30:02.855Z,16.63
2023-04-06T10:35:09.066Z,16.13
2023-04-06T10:40:04.087Z,18.08
2023-04-06T10:45:07.325Z,19.08
2023-04-06T10:50:04.865Z,17.95
2023-04-06T10:55:07.861Z,21.33
2023-04-06T11:00:03.240Z,24.33
2023-04-06T11:05:04.354Z,20.05
2023-04-06T11:10:15.578Z,23.85
2023-04-06T11:15:03.711Z,18.55
2023-04-06T11:20:04.877Z,19.27
2023-04-06T11:25:03.474Z,19.98
2023-04-06T11:30:03.951Z,21.77
2023-04-06T11:35:04.353Z,18.98
2023-04-06T11:40:06.318Z,17.00
2023-04-06T11:45:04.222Z,18.38
2023-04-06T11:50:05.176Z,20.52
2023-04-06T11:55:04.385Z,16.20
2023-04-06T12:00:06.136Z,16.50
2023-04-06T12:05:03.284Z,16.80
2023-04-06T12:10:03.106Z,16.40
2023-04-06T12:15:02.723Z,19.08
2023-04-06T12:20:17.605Z,14.95
2023-04-06T12:25:02.728Z,15.65
2023-04-06T12:30:03.626Z,12.27
2023-04-06T12:35:04.543Z,15.32
2023-04-06T12:40:03.793Z,12.40
2023-04-06T12:45:05.141Z,14.38
2023-04-06T12:50:04.135Z,15.00
2023-04-06T12:55:05.877Z,13.48
2023-04-06T13:00:07.056Z,14.73
2023-04-06T13:05:03.170Z,15.15
2023-04-06T13:10:04.195Z,14.95
2023-04-06T13:15:03.855Z,12.25
2023-04-06T13:20:04.400Z,13.55
2023-04-06T13:25:02.554Z,12.70
2023-04-06T13:30:02.807Z,13.18
2023-04-06T13:35:03.024Z,9.68
2023-04-06T13:40:02.158Z,7.47
2023-04-06T13:45:02.573Z,9.30
2023-04-06T13:50:02.776Z,10.15
2023-04-06T13:55:03.211Z,10.48
2023-04-06T14:00:05.089Z,6.35
2023-04-06T14:05:02.519Z,8.73
2023-04-06T14:10:02.732Z,7.15
2023-04-06T14:15:02.950Z,5.20
2023-04-06T14:20:02.253Z,7.68
2023-04-06T14:25:02.428Z,5.65
2023-04-06T14:30:02.751Z,6.70
2023-04-06T14:35:04.061Z,7.80
2023-04-06T14:40:02.761Z,5.97
2023-04-06T14:45:03.033Z,7.53
2023-04-06T14:50:02.233Z,6.28
2023-04-06T14:55:02.549Z,8.52
2023-04-06T15:00:02.752Z,8.40
2023-04-06T15:05:03.020Z,9.65
2023-04-06T15:10:02.218Z,8.23
2023-04-06T15:15:02.374Z,9.15
2023-04-06T15:20:02.506Z,12.02
2023-04-06T15:25:02.620Z,10.10
2023-04-06T15:30:02.903Z,9.77
2023-04-06T15:35:03.096Z,14.68
2023-04-06T15:40:02.274Z,11.38
2023-04-06T15:45:02.557Z,9.70
2023-04-06T15:50:02.905Z,10.85
2023-04-06T15:55:02.166Z,11.30
2023-04-06T16:00:02.546Z,9.93
2023-04-06T16:05:02.722Z,9.88
2023-04-06T16:10:02.989Z,11.35
2023-04-06T16:15:02.202Z,10.75
2023-04-06T16:20:02.525Z,11.27
2023-04-06T16:25:02.753Z,12.52
2023-04-06T16:35:03.136Z,9.02
2023-04-06T16:40:02.316Z,9.32
2023-04-06T16:45:02.553Z,12.45
2023-04-06T16:50:05.804Z,11.20
2023-04-06T16:55:02.451Z,12.45
2023-04-06T17:00:02.726Z,10.50
2023-04-06T17:05:02.983Z,10.95
2023-04-06T17:10:02.242Z,11.75
2023-04-06T17:15:02.588Z,11.40
2023-04-06T17:20:02.848Z,11.68
2023-04-06T17:25:03.077Z,11.32
2023-04-06T17:30:02.502Z,9.93
2023-04-06T17:35:02.588Z,9.93
2023-04-06T17:40:02.936Z,11.13
2023-04-06T17:45:02.107Z,10.00
2023-04-06T17:50:02.379Z,14.65
2023-04-06T17:55:02.521Z,11.80
2023-04-06T18:00:02.656Z,10.35
2023-04-06T18:05:03.407Z,11.75
2023-04-06T18:10:02.640Z,17.75
2023-04-06T18:15:02.975Z,11.80
2023-04-06T18:20:02.242Z,17.00
2023-04-06T18:25:02.471Z,15.75
2023-04-06T18:30:02.688Z,15.23
2023-04-06T18:35:02.902Z,15.85
2023-04-06T18:40:03.064Z,18.13
2023-04-06T18:45:02.232Z,13.75
2023-04-06T18:50:02.394Z,14.10
2023-04-06T18:55:02.552Z,13.18
2023-04-06T19:00:02.805Z,18.85
2023-04-06T19:05:03.356Z,15.95
2023-04-06T19:10:02.591Z,17.58
2023-04-06T19:15:02.706Z,17.88
2023-04-06T19:20:02.877Z,17.95
2023-04-06T19:25:03.232Z,17.55
2023-04-06T19:30:02.304Z,14.65
2023-04-06T19:35:02.493Z,14.48
2023-04-06T19:40:02.836Z,15.40
2023-04-06T19:45:03.084Z,13.77
2023-04-06T19:50:02.240Z,12.73
2023-04-06T19:55:02.457Z,14.13
2023-04-06T20:00:02.731Z,12.50
2023-04-06T20:05:02.878Z,17.48
2023-04-06T20:10:02.051Z,15.80
2023-04-06T20:15:02.519Z,13.43
2023-04-06T20:20:02.684Z,12.38
2023-04-06T20:25:03.102Z,12.90
2023-04-06T20:30:02.188Z,15.85
2023-04-06T20:35:02.615Z,13.32
2023-04-06T20:40:02.789Z,12.52
2023-04-06T20:45:03.047Z,11.95
2023-04-06T20:50:02.239Z,10.23
2023-04-06T20:55:02.451Z,11.00
2023-04-06T21:00:02.631Z,10.95
2023-04-06T21:05:15.719Z,10.20
2023-04-06T21:10:08.795Z,10.25
2023-04-06T21:15:08.823Z,11.10
2023-04-06T21:20:08.907Z,13.30
2023-04-06T21:25:08.961Z,12.05
2023-04-06T21:30:08.040Z,10.30
2023-04-06T21:35:08.069Z,12.45
2023-04-06T21:40:08.141Z,10.05
2023-04-06T21:45:08.218Z,10.27
2023-04-06T21:50:08.259Z,10.90
2023-04-06T21:55:08.299Z,11.50
2023-04-06T22:00:08.362Z,9.85
2023-04-06T22:05:08.668Z,10.75
2023-04-06T22:10:08.866Z,10.38
2023-04-06T22:15:08.878Z,10.55
2023-04-06T22:20:08.955Z,9.43
2023-04-06T22:25:07.974Z,8.73
2023-04-06T22:30:08.005Z,11.52
2023-04-06T22:35:08.010Z,12.25
2023-04-06T22:40:08.053Z,12.52
2023-04-06T22:45:08.114Z,10.15
2023-04-06T22:50:08.160Z,9.52
2023-04-06T22:55:08.308Z,8.00
2023-04-06T23:01:12.901Z,10.95
2023-04-06T23:05:08.923Z,8.90
2023-04-06T23:10:08.832Z,8.35
2023-04-06T23:15:08.932Z,10.15
2023-04-06T23:20:07.978Z,8.95
2023-04-06T23:25:08.051Z,9.60
2023-04-06T23:30:08.119Z,8.55
2023-04-06T23:35:08.163Z,9.07
2023-04-06T23:40:08.210Z,8.77
2023-04-06T23:45:08.231Z,8.73
2023-04-06T23:50:08.274Z,7.80
2023-04-06T23:55:08.281Z,10.23
